< < Back
Terminal Aerodrome Forecast


Current Version              Previous Versions:   1  2  3  4  5  6  7  8  9  

Terminal Aerodrome Forecast

661
FTUS44 KOHX 261700 RRA
TAFBNA
TAF
KBNA 261740Z 2618/2718 27005KT P6SM SCT040 SCT070 SCT200
     FM270200 VRB03KT P6SM SKC
     FM271500 02004KT P6SM SCT040 BKN200=

Latest METAR

850
SAUS70 KWBC 271900 RRI
MTRBNA
METAR KBNA 271853Z 09005KT 10SM SCT042 SCT070 BKN200 BKN250 32/21 A3008
RMK AO2 SLP179 T03170211


USA.gov is the U.S. government's official web portal to all federal, state and local government web resources and services.